Back to Top

Language: 

My Weather Underground Personal Weather Station Historical Data with Graphs...

Delerius Weather Station Historical Data
Daily Summary for January 16, 2017 Units:  Both    English   Metric
« Previous Day
Next Day »
Daily Weekly Monthly Yearly Custom
  High: Low: Average:
Temperature: 47.3 °F /  8.5 °C 41.1 °F /  5.1 °C 44.1 °F /  6.7 °C
Dew Point: 46.0 °F /  7.8 °C 40.6 °F /  4.8 °C 43.4 °F /  6.3 °C
Humidity: 98 % 95 % 97 %
Wind Speed: 4.0 mph /  6.4 km/h - 0.6 mph /  1 km/h
Wind Gust: 7.0 mph /  11.3 km/h - -
Wind:- - SE
Pressure: 30.45 in /  1031 hPa 30.26 in /  1024.6 hPa -
Precipitation: 0.12 in /  3.05 mm    
Historical Graphs
 
 
Tabular Data for January 16, 2017
Time Temperature Dew Point Pressure Wind Wind Speed Wind Gust Humidity Rainfall Rate (Hourly) solar Conditions
00:00 47.3 °F /  8.5 °C 45.9 °F /  7.7 °C 30.26 in /  1024.6 hPa North 1.0 mph /  1.6 km/h 1.0 mph /  1.6 km/h 95 % 0.00 in /  0 mm 0 W/m2
00:05 47.2 °F /  8.4 °C 45.8 °F /  7.7 °C 30.26 in /  1024.6 hPa North 1.0 mph /  1.6 km/h 1.0 mph /  1.6 km/h 95 % 0.00 in /  0 mm 0 W/m2
00:15 47.1 °F /  8.4 °C 46.0 °F /  7.8 °C 30.26 in /  1024.6 hPa North 1.0 mph /  1.6 km/h 1.0 mph /  1.6 km/h 96 % 0.00 in /  0 mm 0 W/m2
00:20 47.1 °F /  8.4 °C 46.0 °F /  7.8 °C 30.26 in /  1024.6 hPa Calm     96 % 0.00 in /  0 mm 0 W/m2
00:25 47.1 °F /  8.4 °C 46.0 °F /  7.8 °C 30.26 in /  1024.6 hPa Calm     96 % 0.00 in /  0 mm 0 W/m2
00:30 47.0 °F /  8.3 °C 45.9 °F /  7.7 °C 30.26 in /  1024.6 hPa Calm     96 % 0.00 in /  0 mm 0 W/m2
00:35 47.0 °F /  8.3 °C 45.9 °F /  7.7 °C 30.26 in /  1024.6 hPa Calm     96 % 0.00 in /  0 mm 0 W/m2
00:40 46.9 °F /  8.3 °C 45.8 °F /  7.7 °C 30.26 in /  1024.6 hPa Calm     96 % 0.00 in /  0 mm 0 W/m2
00:50 46.9 °F /  8.3 °C 45.8 °F /  7.7 °C 30.26 in /  1024.6 hPa Calm     96 % 0.00 in /  0 mm 0 W/m2
00:55 46.8 °F /  8.2 °C 45.7 °F /  7.6 °C 30.26 in /  1024.6 hPa Calm     96 % 0.00 in /  0 mm 0 W/m2
01:00 46.7 °F /  8.2 °C 45.6 °F /  7.6 °C 30.26 in /  1024.6 hPa Calm     96 % 0.00 in /  0 mm 0 W/m2
01:05 46.7 °F /  8.2 °C 45.6 °F /  7.6 °C 30.26 in /  1024.6 hPa Calm   1.0 mph /  1.6 km/h 96 % 0.00 in /  0 mm 0 W/m2
01:10 46.6 °F /  8.1 °C 45.5 °F /  7.5 °C 30.26 in /  1024.6 hPa Calm   5.0 mph /  8 km/h 96 % 0.00 in /  0 mm 0 W/m2
01:15 46.6 °F /  8.1 °C 45.5 °F /  7.5 °C 30.26 in /  1024.6 hPa Calm   5.0 mph /  8 km/h 96 % 0.00 in /  0 mm 0 W/m2
01:20 46.6 °F /  8.1 °C 45.5 °F /  7.5 °C 30.26 in /  1024.6 hPa Calm   5.0 mph /  8 km/h 96 % 0.00 in /  0 mm 0 W/m2
01:25 46.6 °F /  8.1 °C 45.5 °F /  7.5 °C 30.26 in /  1024.6 hPa Calm   5.0 mph /  8 km/h 96 % 0.00 in /  0 mm 0 W/m2
01:35 46.5 °F /  8.1 °C 45.4 °F /  7.4 °C 30.26 in /  1024.6 hPa Calm   5.0 mph /  8 km/h 96 % 0.00 in /  0 mm 0 W/m2
01:40 46.5 °F /  8.1 °C 45.4 °F /  7.4 °C 30.26 in /  1024.6 hPa Calm   5.0 mph /  8 km/h 96 % 0.00 in /  0 mm 0 W/m2
01:45 46.5 °F /  8.1 °C 45.4 °F /  7.4 °C 30.26 in /  1024.6 hPa Calm   5.0 mph /  8 km/h 96 % 0.00 in /  0 mm 0 W/m2
01:50 46.5 °F /  8.1 °C 45.4 °F /  7.4 °C 30.26 in /  1024.6 hPa Calm   5.0 mph /  8 km/h 96 % 0.00 in /  0 mm 0 W/m2
01:55 46.5 °F /  8.1 °C 45.4 °F /  7.4 °C 30.26 in /  1024.6 hPa Calm   5.0 mph /  8 km/h 96 % 0.00 in /  0 mm 0 W/m2
02:00 46.5 °F /  8.1 °C 45.7 °F /  7.6 °C 30.26 in /  1024.6 hPa Calm   5.0 mph /  8 km/h 97 % 0.00 in /  0 mm 0 W/m2
02:05 46.5 °F /  8.1 °C 45.7 °F /  7.6 °C 30.27 in /  1024.9 hPa Calm   5.0 mph /  8 km/h 97 % 0.00 in /  0 mm 0 W/m2
02:15 46.4 °F /  8 °C 45.6 °F /  7.6 °C 30.27 in /  1024.9 hPa Calm   5.0 mph /  8 km/h 97 % 0.00 in /  0 mm 0 W/m2
02:20 46.4 °F /  8 °C 45.6 °F /  7.6 °C 30.26 in /  1024.6 hPa Calm   5.0 mph /  8 km/h 97 % 0.00 in /  0 mm 0 W/m2
02:25 46.4 °F /  8 °C 45.3 °F /  7.4 °C 30.26 in /  1024.6 hPa Calm   5.0 mph /  8 km/h 96 % 0.00 in /  0 mm 0 W/m2
02:30 46.3 °F /  7.9 °C 45.2 °F /  7.3 °C 30.26 in /  1024.6 hPa Calm   5.0 mph /  8 km/h 96 % 0.00 in /  0 mm 0 W/m2
02:35 46.3 °F /  7.9 °C 45.2 °F /  7.3 °C 30.27 in /  1024.9 hPa Calm   5.0 mph /  8 km/h 96 % 0.00 in /  0 mm 0 W/m2
02:40 46.3 °F /  7.9 °C 45.5 °F /  7.5 °C 30.27 in /  1024.9 hPa Calm   5.0 mph /  8 km/h 97 % 0.00 in /  0 mm 0 W/m2
02:50 46.3 °F /  7.9 °C 45.5 °F /  7.5 °C 30.27 in /  1024.9 hPa Calm   5.0 mph /  8 km/h 97 % 0.00 in /  0 mm 0 W/m2
02:55 46.3 °F /  7.9 °C 45.5 °F /  7.5 °C 30.27 in /  1024.9 hPa Calm   5.0 mph /  8 km/h 97 % 0.00 in /  0 mm 0 W/m2
03:00 46.3 °F /  7.9 °C 45.5 °F /  7.5 °C 30.27 in /  1024.9 hPa Calm   5.0 mph /  8 km/h 97 % 0.00 in /  0 mm 0 W/m2
03:05 46.3 °F /  7.9 °C 45.5 °F /  7.5 °C 30.26 in /  1024.6 hPa Calm   5.0 mph /  8 km/h 97 % 0.00 in /  0 mm 0 W/m2
03:10 46.3 °F /  7.9 °C 45.5 °F /  7.5 °C 30.26 in /  1024.6 hPa Calm   5.0 mph /  8 km/h 97 % 0.00 in /  0 mm 0 W/m2
03:15 46.3 °F /  7.9 °C 45.5 °F /  7.5 °C 30.26 in /  1024.6 hPa Calm   5.0 mph /  8 km/h 97 % 0.00 in /  0 mm 0 W/m2
03:20 46.3 °F /  7.9 °C 45.5 °F /  7.5 °C 30.26 in /  1024.6 hPa Calm   5.0 mph /  8 km/h 97 % 0.00 in /  0 mm 0 W/m2
03:30 46.2 °F /  7.9 °C 45.4 °F /  7.4 °C 30.26 in /  1024.6 hPa Calm   5.0 mph /  8 km/h 97 % 0.00 in /  0 mm 0 W/m2
03:35 46.2 °F /  7.9 °C 45.4 °F /  7.4 °C 30.26 in /  1024.6 hPa Calm   5.0 mph /  8 km/h 97 % 0.00 in /  0 mm 0 W/m2
03:45 46.1 °F /  7.8 °C 45.3 °F /  7.4 °C 30.26 in /  1024.6 hPa Calm   5.0 mph /  8 km/h 97 % 0.00 in /  0 mm 0 W/m2
03:50 46.1 °F /  7.8 °C 45.3 °F /  7.4 °C 30.26 in /  1024.6 hPa Calm   5.0 mph /  8 km/h 97 % 0.00 in /  0 mm 0 W/m2
03:55 46.1 °F /  7.8 °C 45.3 °F /  7.4 °C 30.26 in /  1024.6 hPa Calm   5.0 mph /  8 km/h 97 % 0.00 in /  0 mm 0 W/m2
04:05 46.1 °F /  7.8 °C 45.3 °F /  7.4 °C 30.26 in /  1024.6 hPa Calm   5.0 mph /  8 km/h 97 % 0.00 in /  0 mm 0 W/m2
04:10 46.1 °F /  7.8 °C 45.3 °F /  7.4 °C 30.26 in /  1024.6 hPa Calm   5.0 mph /  8 km/h 97 % 0.00 in /  0 mm 0 W/m2
04:15 46.1 °F /  7.8 °C 45.3 °F /  7.4 °C 30.26 in /  1024.6 hPa Calm   5.0 mph /  8 km/h 97 % 0.00 in /  0 mm 0 W/m2
04:20 46.1 °F /  7.8 °C 45.3 °F /  7.4 °C 30.26 in /  1024.6 hPa Calm   5.0 mph /  8 km/h 97 % 0.00 in /  0 mm 0 W/m2
04:25 46.1 °F /  7.8 °C 45.3 °F /  7.4 °C 30.26 in /  1024.6 hPa Calm   5.0 mph /  8 km/h 97 % 0.00 in /  0 mm 0 W/m2
04:30 46.0 °F /  7.8 °C 45.2 °F /  7.3 °C 30.26 in /  1024.6 hPa Calm   5.0 mph /  8 km/h 97 % 0.00 in /  0 mm 0 W/m2
04:35 46.0 °F /  7.8 °C 45.2 °F /  7.3 °C 30.26 in /  1024.6 hPa Calm   5.0 mph /  8 km/h 97 % 0.00 in /  0 mm 0 W/m2
04:45 46.0 °F /  7.8 °C 45.2 °F /  7.3 °C 30.26 in /  1024.6 hPa Calm   5.0 mph /  8 km/h 97 % 0.00 in /  0 mm 0 W/m2
04:50 46.0 °F /  7.8 °C 45.2 °F /  7.3 °C 30.26 in /  1024.6 hPa Calm   5.0 mph /  8 km/h 97 % 0.00 in /  0 mm 0 W/m2
04:55 46.0 °F /  7.8 °C 45.2 °F /  7.3 °C 30.26 in /  1024.6 hPa Calm   5.0 mph /  8 km/h 97 % 0.00 in /  0 mm 0 W/m2
05:00 46.0 °F /  7.8 °C 45.2 °F /  7.3 °C 30.26 in /  1024.6 hPa Calm   5.0 mph /  8 km/h 97 % 0.00 in /  0 mm 0 W/m2
05:05 46.0 °F /  7.8 °C 45.2 °F /  7.3 °C 30.26 in /  1024.6 hPa Calm   5.0 mph /  8 km/h 97 % 0.00 in /  0 mm 0 W/m2
05:10 46.0 °F /  7.8 °C 45.2 °F /  7.3 °C 30.26 in /  1024.6 hPa Calm   5.0 mph /  8 km/h 97 % 0.00 in /  0 mm 0 W/m2
05:15 46.0 °F /  7.8 °C 45.2 °F /  7.3 °C 30.26 in /  1024.6 hPa Calm   5.0 mph /  8 km/h 97 % 0.00 in /  0 mm 0 W/m2
05:25 46.0 °F /  7.8 °C 45.2 °F /  7.3 °C 30.26 in /  1024.6 hPa Calm   5.0 mph /  8 km/h 97 % 0.00 in /  0 mm 0 W/m2
05:30 46.0 °F /  7.8 °C 45.2 °F /  7.3 °C 30.26 in /  1024.6 hPa Calm   5.0 mph /  8 km/h 97 % 0.00 in /  0 mm 0 W/m2
05:35 46.0 °F /  7.8 °C 45.2 °F /  7.3 °C 30.26 in /  1024.6 hPa Calm   5.0 mph /  8 km/h 97 % 0.00 in /  0 mm 0 W/m2
05:40 46.0 °F /  7.8 °C 45.2 °F /  7.3 °C 30.26 in /  1024.6 hPa Calm   5.0 mph /  8 km/h 97 % 0.00 in /  0 mm 0 W/m2
05:45 46.0 °F /  7.8 °C 45.2 °F /  7.3 °C 30.26 in /  1024.6 hPa Calm   5.0 mph /  8 km/h 97 % 0.00 in /  0 mm 0 W/m2
05:50 46.0 °F /  7.8 °C 45.2 °F /  7.3 °C 30.26 in /  1024.6 hPa Calm   5.0 mph /  8 km/h 97 % 0.00 in /  0 mm 0 W/m2
05:55 46.0 °F /  7.8 °C 45.2 °F /  7.3 °C 30.26 in /  1024.6 hPa Calm   5.0 mph /  8 km/h 97 % 0.00 in /  0 mm 0 W/m2
06:00 46.0 °F /  7.8 °C 45.2 °F /  7.3 °C 30.26 in /  1024.6 hPa Calm   5.0 mph /  8 km/h 97 % 0.00 in /  0 mm 0 W/m2
06:10 46.0 °F /  7.8 °C 45.2 °F /  7.3 °C 30.26 in /  1024.6 hPa Calm   5.0 mph /  8 km/h 97 % 0.00 in /  0 mm 0 W/m2
06:20 46.0 °F /  7.8 °C 45.2 °F /  7.3 °C 30.26 in /  1024.6 hPa Calm   5.0 mph /  8 km/h 97 % 0.00 in /  0 mm 0 W/m2
06:25 46.1 °F /  7.8 °C 45.3 °F /  7.4 °C 30.27 in /  1024.9 hPa Calm   5.0 mph /  8 km/h 97 % 0.00 in /  0 mm 0 W/m2
06:30 46.0 °F /  7.8 °C 45.2 °F /  7.3 °C 30.27 in /  1024.9 hPa Calm   5.0 mph /  8 km/h 97 % 0.00 in /  0 mm 0 W/m2
06:40 45.8 °F /  7.7 °C 45.0 °F /  7.2 °C 30.27 in /  1024.9 hPa Calm   5.0 mph /  8 km/h 97 % 0.00 in /  0 mm 0 W/m2
06:45 45.7 °F /  7.6 °C 44.9 °F /  7.2 °C 30.27 in /  1024.9 hPa Calm   5.0 mph /  8 km/h 97 % 0.00 in /  0 mm 0 W/m2
06:50 45.5 °F /  7.5 °C 44.7 °F /  7.1 °C 30.27 in /  1024.9 hPa Calm   5.0 mph /  8 km/h 97 % 0.00 in /  0 mm 0 W/m2
07:00 45.2 °F /  7.3 °C 44.4 °F /  6.9 °C 30.27 in /  1024.9 hPa Calm   5.0 mph /  8 km/h 97 % 0.00 in /  0 mm 0 W/m2
07:05 45.1 °F /  7.3 °C 44.3 °F /  6.8 °C 30.27 in /  1024.9 hPa Calm   5.0 mph /  8 km/h 97 % 0.08 in /  2.03 mm 0 W/m2
07:15 45.0 °F /  7.2 °C 44.2 °F /  6.8 °C 30.27 in /  1024.9 hPa Calm   5.0 mph /  8 km/h 97 % 0.05 in /  1.27 mm 0 W/m2
07:20 44.9 °F /  7.2 °C 44.1 °F /  6.7 °C 30.28 in /  1025.3 hPa Calm   5.0 mph /  8 km/h 97 % 0.00 in /  0 mm 0 W/m2
07:25 44.8 °F /  7.1 °C 44.0 °F /  6.7 °C 30.28 in /  1025.3 hPa Calm   5.0 mph /  8 km/h 97 % 0.00 in /  0 mm 0 W/m2
07:30 44.8 °F /  7.1 °C 44.0 °F /  6.7 °C 30.28 in /  1025.3 hPa Calm   5.0 mph /  8 km/h 97 % 0.00 in /  0 mm 0 W/m2
07:35 44.8 °F /  7.1 °C 44.0 °F /  6.7 °C 30.28 in /  1025.3 hPa Calm   5.0 mph /  8 km/h 97 % 0.00 in /  0 mm 0 W/m2
07:45 44.6 °F /  7 °C 43.8 °F /  6.6 °C 30.28 in /  1025.3 hPa Calm   5.0 mph /  8 km/h 97 % 0.00 in /  0 mm 0 W/m2
07:55 44.2 °F /  6.8 °C 43.4 °F /  6.3 °C 30.28 in /  1025.3 hPa East 1.0 mph /  1.6 km/h 4.0 mph /  6.4 km/h 97 % 0.00 in /  0 mm 0 W/m2
08:00 44.0 °F /  6.7 °C 43.2 °F /  6.2 °C 30.29 in /  1025.6 hPa East 1.0 mph /  1.6 km/h 5.0 mph /  8 km/h 97 % 0.00 in /  0 mm 0 W/m2
08:05 43.7 °F /  6.5 °C 42.9 °F /  6.1 °C 30.29 in /  1025.6 hPa East 2.0 mph /  3.2 km/h 5.0 mph /  8 km/h 97 % 0.00 in /  0 mm 0 W/m2
08:10 43.5 °F /  6.4 °C 42.7 °F /  5.9 °C 30.29 in /  1025.6 hPa ENE 2.0 mph /  3.2 km/h 5.0 mph /  8 km/h 97 % 0.00 in /  0 mm 0 W/m2
08:20 43.0 °F /  6.1 °C 42.2 °F /  5.7 °C 30.29 in /  1025.6 hPa East 2.0 mph /  3.2 km/h 2.0 mph /  3.2 km/h 97 % 0.00 in /  0 mm 0 W/m2
08:25 42.9 °F /  6.1 °C 42.1 °F /  5.6 °C 30.29 in /  1025.6 hPa East 2.0 mph /  3.2 km/h 5.0 mph /  8 km/h 97 % 0.00 in /  0 mm 0 W/m2
08:35 42.7 °F /  5.9 °C 41.9 °F /  5.5 °C 30.30 in /  1026 hPa East 1.0 mph /  1.6 km/h 5.0 mph /  8 km/h 97 % 0.00 in /  0 mm 5 W/m2
08:40 42.7 °F /  5.9 °C 41.9 °F /  5.5 °C 30.30 in /  1026 hPa East 1.0 mph /  1.6 km/h 5.0 mph /  8 km/h 97 % 0.00 in /  0 mm 5 W/m2
08:45 42.8 °F /  6 °C 42.0 °F /  5.6 °C 30.30 in /  1026 hPa East 1.0 mph /  1.6 km/h 5.0 mph /  8 km/h 97 % 0.00 in /  0 mm 7 W/m2
08:50 42.8 °F /  6 °C 42.0 °F /  5.6 °C 30.30 in /  1026 hPa East 1.0 mph /  1.6 km/h 1.0 mph /  1.6 km/h 97 % 0.00 in /  0 mm 9 W/m2
08:55 42.9 °F /  6.1 °C 42.1 °F /  5.6 °C 30.30 in /  1026 hPa East 1.0 mph /  1.6 km/h 5.0 mph /  8 km/h 97 % 0.00 in /  0 mm 9 W/m2
09:00 42.9 °F /  6.1 °C 42.4 °F /  5.8 °C 30.30 in /  1026 hPa Calm   5.0 mph /  8 km/h 98 % 0.00 in /  0 mm 12 W/m2
09:10 43.0 °F /  6.1 °C 42.5 °F /  5.8 °C 30.30 in /  1026 hPa Calm   5.0 mph /  8 km/h 98 % 0.00 in /  0 mm 12 W/m2
09:15 43.0 °F /  6.1 °C 42.5 °F /  5.8 °C 30.30 in /  1026 hPa Calm   5.0 mph /  8 km/h 98 % 0.00 in /  0 mm 16 W/m2
09:20 43.1 °F /  6.2 °C 42.6 °F /  5.9 °C 30.30 in /  1026 hPa Calm   5.0 mph /  8 km/h 98 % 0.00 in /  0 mm 16 W/m2
09:30 43.2 °F /  6.2 °C 42.7 °F /  5.9 °C 30.30 in /  1026 hPa Calm   5.0 mph /  8 km/h 98 % 0.00 in /  0 mm 21 W/m2
09:35 43.1 °F /  6.2 °C 42.6 °F /  5.9 °C 30.30 in /  1026 hPa Calm   5.0 mph /  8 km/h 98 % 0.00 in /  0 mm 23 W/m2
09:40 43.1 °F /  6.2 °C 42.6 °F /  5.9 °C 30.31 in /  1026.3 hPa East 1.0 mph /  1.6 km/h 1.0 mph /  1.6 km/h 98 % 0.00 in /  0 mm 23 W/m2
09:50 43.2 °F /  6.2 °C 42.7 °F /  5.9 °C 30.30 in /  1026 hPa ESE 1.0 mph /  1.6 km/h 1.0 mph /  1.6 km/h 98 % 0.00 in /  0 mm 32 W/m2
09:55 43.2 °F /  6.2 °C 42.7 °F /  5.9 °C 30.31 in /  1026.3 hPa ESE 1.0 mph /  1.6 km/h 5.0 mph /  8 km/h 98 % 0.00 in /  0 mm 26 W/m2
10:05 43.2 °F /  6.2 °C 42.7 °F /  5.9 °C 30.31 in /  1026.3 hPa ESE 1.0 mph /  1.6 km/h 5.0 mph /  8 km/h 98 % 0.00 in /  0 mm 19 W/m2
10:10 43.1 °F /  6.2 °C 42.6 °F /  5.9 °C 30.31 in /  1026.3 hPa SE 2.0 mph /  3.2 km/h 5.0 mph /  8 km/h 98 % 0.00 in /  0 mm 23 W/m2
10:15 43.0 °F /  6.1 °C 42.5 °F /  5.8 °C 30.32 in /  1026.6 hPa SE 3.0 mph /  4.8 km/h 5.0 mph /  8 km/h 98 % 0.00 in /  0 mm 25 W/m2
10:25 42.9 °F /  6.1 °C 42.4 °F /  5.8 °C 30.32 in /  1026.6 hPa SE 2.0 mph /  3.2 km/h 5.0 mph /  8 km/h 98 % 0.00 in /  0 mm 25 W/m2
10:30 42.9 °F /  6.1 °C 42.4 °F /  5.8 °C 30.32 in /  1026.6 hPa SE 2.0 mph /  3.2 km/h 5.0 mph /  8 km/h 98 % 0.00 in /  0 mm 25 W/m2
10:35 42.9 °F /  6.1 °C 42.4 °F /  5.8 °C 30.32 in /  1026.6 hPa SE 2.0 mph /  3.2 km/h 5.0 mph /  8 km/h 98 % 0.00 in /  0 mm 26 W/m2
10:40 42.8 °F /  6 °C 42.0 °F /  5.6 °C 30.32 in /  1026.6 hPa SE 2.0 mph /  3.2 km/h 5.0 mph /  8 km/h 97 % 0.00 in /  0 mm 25 W/m2
10:45 42.8 °F /  6 °C 42.0 °F /  5.6 °C 30.32 in /  1026.6 hPa South 1.0 mph /  1.6 km/h 5.0 mph /  8 km/h 97 % 0.00 in /  0 mm 25 W/m2
10:50 42.7 °F /  5.9 °C 41.9 °F /  5.5 °C 30.32 in /  1026.6 hPa South 1.0 mph /  1.6 km/h 1.0 mph /  1.6 km/h 97 % 0.00 in /  0 mm 25 W/m2
10:55 42.7 °F /  5.9 °C 42.2 °F /  5.7 °C 30.33 in /  1027 hPa South 1.0 mph /  1.6 km/h 5.0 mph /  8 km/h 98 % 0.00 in /  0 mm 23 W/m2
11:05 42.8 °F /  6 °C 42.3 °F /  5.7 °C 30.33 in /  1027 hPa SE 1.0 mph /  1.6 km/h 5.0 mph /  8 km/h 98 % 0.00 in /  0 mm 18 W/m2
11:10 42.8 °F /  6 °C 42.3 °F /  5.7 °C 30.33 in /  1027 hPa SE 2.0 mph /  3.2 km/h 2.0 mph /  3.2 km/h 98 % 0.00 in /  0 mm 25 W/m2
11:15 42.8 °F /  6 °C 42.3 °F /  5.7 °C 30.33 in /  1027 hPa ESE 2.0 mph /  3.2 km/h 5.0 mph /  8 km/h 98 % 0.00 in /  0 mm 28 W/m2
11:20 42.8 °F /  6 °C 42.3 °F /  5.7 °C 30.33 in /  1027 hPa ESE 1.0 mph /  1.6 km/h 1.0 mph /  1.6 km/h 98 % 0.00 in /  0 mm 39 W/m2
11:25 42.8 °F /  6 °C 42.3 °F /  5.7 °C 30.32 in /  1026.6 hPa ESE 1.0 mph /  1.6 km/h 5.0 mph /  8 km/h 98 % 0.00 in /  0 mm 56 W/m2
11:35 42.9 °F /  6.1 °C 42.4 °F /  5.8 °C 30.33 in /  1027 hPa SSE 2.0 mph /  3.2 km/h 5.0 mph /  8 km/h 98 % 0.00 in /  0 mm 72 W/m2
11:40 42.9 °F /  6.1 °C 42.4 °F /  5.8 °C 30.33 in /  1027 hPa SSE 3.0 mph /  4.8 km/h 3.0 mph /  4.8 km/h 98 % 0.00 in /  0 mm 65 W/m2
11:45 42.9 °F /  6.1 °C 42.4 °F /  5.8 °C 30.33 in /  1027 hPa SSE 1.0 mph /  1.6 km/h 5.0 mph /  8 km/h 98 % 0.00 in /  0 mm 65 W/m2
11:50 43.0 °F /  6.1 °C 42.5 °F /  5.8 °C 30.33 in /  1027 hPa Calm   5.0 mph /  8 km/h 98 % 0.00 in /  0 mm 53 W/m2
11:55 43.0 °F /  6.1 °C 42.5 °F /  5.8 °C 30.32 in /  1026.6 hPa Calm   5.0 mph /  8 km/h 98 % 0.00 in /  0 mm 56 W/m2
12:00 43.0 °F /  6.1 °C 42.5 °F /  5.8 °C 30.32 in /  1026.6 hPa Calm   5.0 mph /  8 km/h 98 % 0.00 in /  0 mm 60 W/m2
12:05 43.1 °F /  6.2 °C 42.6 °F /  5.9 °C 30.32 in /  1026.6 hPa Calm   5.0 mph /  8 km/h 98 % 0.00 in /  0 mm 56 W/m2
12:15 43.3 °F /  6.3 °C 42.8 °F /  6 °C 30.32 in /  1026.6 hPa SSE 1.0 mph /  1.6 km/h 2.0 mph /  3.2 km/h 98 % 0.00 in /  0 mm 47 W/m2
12:20 43.2 °F /  6.2 °C 42.7 °F /  5.9 °C 30.32 in /  1026.6 hPa SSE 1.0 mph /  1.6 km/h 5.0 mph /  8 km/h 98 % 0.00 in /  0 mm 47 W/m2
12:25 43.3 °F /  6.3 °C 42.8 °F /  6 °C 30.32 in /  1026.6 hPa SSE 1.0 mph /  1.6 km/h 5.0 mph /  8 km/h 98 % 0.00 in /  0 mm 60 W/m2
12:30 43.4 °F /  6.3 °C 42.9 °F /  6.1 °C 30.32 in /  1026.6 hPa SSE 1.0 mph /  1.6 km/h 1.0 mph /  1.6 km/h 98 % 0.00 in /  0 mm 47 W/m2
12:35 43.4 °F /  6.3 °C 42.9 °F /  6.1 °C 30.32 in /  1026.6 hPa ESE 2.0 mph /  3.2 km/h 3.0 mph /  4.8 km/h 98 % 0.00 in /  0 mm 39 W/m2
12:40 43.3 °F /  6.3 °C 42.8 °F /  6 °C 30.32 in /  1026.6 hPa ESE 3.0 mph /  4.8 km/h 5.0 mph /  8 km/h 98 % 0.00 in /  0 mm 33 W/m2
12:45 43.3 °F /  6.3 °C 42.8 °F /  6 °C 30.32 in /  1026.6 hPa ESE 3.0 mph /  4.8 km/h 6.0 mph /  9.7 km/h 98 % 0.00 in /  0 mm 46 W/m2
12:55 43.1 °F /  6.2 °C 42.6 °F /  5.9 °C 30.32 in /  1026.6 hPa ESE 4.0 mph /  6.4 km/h 5.0 mph /  8 km/h 98 % 0.00 in /  0 mm 49 W/m2
13:05 43.1 °F /  6.2 °C 42.6 °F /  5.9 °C 30.32 in /  1026.6 hPa ESE 2.0 mph /  3.2 km/h 5.0 mph /  8 km/h 98 % 0.00 in /  0 mm 40 W/m2
13:10 43.1 °F /  6.2 °C 42.6 °F /  5.9 °C 30.32 in /  1026.6 hPa South 2.0 mph /  3.2 km/h 5.0 mph /  8 km/h 98 % 0.00 in /  0 mm 42 W/m2
13:15 43.0 °F /  6.1 °C 42.5 °F /  5.8 °C 30.32 in /  1026.6 hPa SE 3.0 mph /  4.8 km/h 5.0 mph /  8 km/h 98 % 0.00 in /  0 mm 46 W/m2
13:20 43.0 °F /  6.1 °C 42.5 °F /  5.8 °C 30.32 in /  1026.6 hPa SE 2.0 mph /  3.2 km/h 2.0 mph /  3.2 km/h 98 % 0.00 in /  0 mm 35 W/m2
13:30 43.0 °F /  6.1 °C 42.5 °F /  5.8 °C 30.32 in /  1026.6 hPa Calm   5.0 mph /  8 km/h 98 % 0.00 in /  0 mm 39 W/m2
13:35 43.0 °F /  6.1 °C 42.5 °F /  5.8 °C 30.32 in /  1026.6 hPa Calm   5.0 mph /  8 km/h 98 % 0.00 in /  0 mm 39 W/m2
13:40 43.0 °F /  6.1 °C 42.5 °F /  5.8 °C 30.32 in /  1026.6 hPa Calm   5.0 mph /  8 km/h 98 % 0.00 in /  0 mm 47 W/m2
13:45 43.0 °F /  6.1 °C 42.5 °F /  5.8 °C 30.32 in /  1026.6 hPa Calm   5.0 mph /  8 km/h 98 % 0.00 in /  0 mm 40 W/m2
13:50 43.0 °F /  6.1 °C 42.5 °F /  5.8 °C 30.32 in /  1026.6 hPa Calm   5.0 mph /  8 km/h 98 % 0.00 in /  0 mm 40 W/m2
13:55 43.1 °F /  6.2 °C 42.6 °F /  5.9 °C 30.32 in /  1026.6 hPa Calm   5.0 mph /  8 km/h 98 % 0.00 in /  0 mm 42 W/m2
14:05 43.2 °F /  6.2 °C 42.7 °F /  5.9 °C 30.32 in /  1026.6 hPa Calm   5.0 mph /  8 km/h 98 % 0.00 in /  0 mm 30 W/m2
14:10 43.3 °F /  6.3 °C 42.8 °F /  6 °C 30.32 in /  1026.6 hPa Calm   5.0 mph /  8 km/h 98 % 0.00 in /  0 mm 21 W/m2
14:15 43.4 °F /  6.3 °C 42.9 °F /  6.1 °C 30.32 in /  1026.6 hPa Calm   5.0 mph /  8 km/h 98 % 0.00 in /  0 mm 26 W/m2
14:20 43.4 °F /  6.3 °C 42.9 °F /  6.1 °C 30.32 in /  1026.6 hPa Calm   5.0 mph /  8 km/h 98 % 0.00 in /  0 mm 30 W/m2
14:25 43.4 °F /  6.3 °C 42.9 °F /  6.1 °C 30.32 in /  1026.6 hPa Calm   5.0 mph /  8 km/h 98 % 0.00 in /  0 mm 40 W/m2
14:30 43.5 °F /  6.4 °C 43.0 °F /  6.1 °C 30.32 in /  1026.6 hPa Calm   5.0 mph /  8 km/h 98 % 0.00 in /  0 mm 40 W/m2
14:35 43.6 °F /  6.4 °C 43.1 °F /  6.2 °C 30.33 in /  1027 hPa Calm   5.0 mph /  8 km/h 98 % 0.00 in /  0 mm 39 W/m2
14:40 43.6 °F /  6.4 °C 43.1 °F /  6.2 °C 30.33 in /  1027 hPa Calm   5.0 mph /  8 km/h 98 % 0.00 in /  0 mm 30 W/m2
14:50 43.7 °F /  6.5 °C 43.2 °F /  6.2 °C 30.33 in /  1027 hPa Calm   5.0 mph /  8 km/h 98 % 0.00 in /  0 mm 28 W/m2
14:55 43.8 °F /  6.6 °C 43.3 °F /  6.3 °C 30.33 in /  1027 hPa Calm   5.0 mph /  8 km/h 98 % 0.00 in /  0 mm 21 W/m2
15:00 43.8 °F /  6.6 °C 43.3 °F /  6.3 °C 30.33 in /  1027 hPa Calm   5.0 mph /  8 km/h 98 % 0.00 in /  0 mm 25 W/m2
15:05 43.8 °F /  6.6 °C 43.3 °F /  6.3 °C 30.34 in /  1027.3 hPa Calm   5.0 mph /  8 km/h 98 % 0.00 in /  0 mm 19 W/m2
15:10 43.7 °F /  6.5 °C 43.2 °F /  6.2 °C 30.34 in /  1027.3 hPa ENE 1.0 mph /  1.6 km/h 5.0 mph /  8 km/h 98 % 0.00 in /  0 mm 16 W/m2
15:15 43.7 °F /  6.5 °C 43.2 °F /  6.2 °C 30.34 in /  1027.3 hPa ESE 1.0 mph /  1.6 km/h 5.0 mph /  8 km/h 98 % 0.00 in /  0 mm 16 W/m2
15:20 43.6 °F /  6.4 °C 43.1 °F /  6.2 °C 30.34 in /  1027.3 hPa East 1.0 mph /  1.6 km/h 5.0 mph /  8 km/h 98 % 0.00 in /  0 mm 19 W/m2
15:30 43.4 °F /  6.3 °C 42.9 °F /  6.1 °C 30.34 in /  1027.3 hPa East 1.0 mph /  1.6 km/h 1.0 mph /  1.6 km/h 98 % 0.00 in /  0 mm 14 W/m2
15:35 43.4 °F /  6.3 °C 42.9 °F /  6.1 °C 30.35 in /  1027.7 hPa Calm   5.0 mph /  8 km/h 98 % 0.00 in /  0 mm 18 W/m2
15:40 43.3 °F /  6.3 °C 42.8 °F /  6 °C 30.35 in /  1027.7 hPa Calm   5.0 mph /  8 km/h 98 % 0.00 in /  0 mm 16 W/m2
15:45 43.3 °F /  6.3 °C 42.8 °F /  6 °C 30.34 in /  1027.3 hPa Calm   5.0 mph /  8 km/h 98 % 0.00 in /  0 mm 16 W/m2
15:55 43.2 °F /  6.2 °C 42.7 °F /  5.9 °C 30.35 in /  1027.7 hPa East 1.0 mph /  1.6 km/h 5.0 mph /  8 km/h 98 % 0.00 in /  0 mm 9 W/m2
21:30 41.4 °F /  5.2 °C 40.9 °F /  4.9 °C 30.44 in /  1030.7 hPa SE 1.0 mph /  1.6 km/h 1.0 mph /  1.6 km/h 98 % 0.00 in /  0 mm 0 W/m2
21:35 41.4 °F /  5.2 °C 40.9 °F /  4.9 °C 30.44 in /  1030.7 hPa Calm   5.0 mph /  8 km/h 98 % 0.00 in /  0 mm 0 W/m2
21:40 41.4 °F /  5.2 °C 40.9 °F /  4.9 °C 30.44 in /  1030.7 hPa Calm   5.0 mph /  8 km/h 98 % 0.00 in /  0 mm 0 W/m2
21:45 41.4 °F /  5.2 °C 40.9 °F /  4.9 °C 30.44 in /  1030.7 hPa Calm   5.0 mph /  8 km/h 98 % 0.00 in /  0 mm 0 W/m2
21:50 41.4 °F /  5.2 °C 40.9 °F /  4.9 °C 30.44 in /  1030.7 hPa Calm   5.0 mph /  8 km/h 98 % 0.00 in /  0 mm 0 W/m2
21:55 41.4 °F /  5.2 °C 40.9 °F /  4.9 °C 30.44 in /  1030.7 hPa Calm   5.0 mph /  8 km/h 98 % 0.00 in /  0 mm 0 W/m2
22:00 41.3 °F /  5.2 °C 40.8 °F /  4.9 °C 30.45 in /  1031 hPa SE 1.0 mph /  1.6 km/h 5.0 mph /  8 km/h 98 % 0.00 in /  0 mm 0 W/m2
22:05 41.2 °F /  5.1 °C 40.7 °F /  4.8 °C 30.45 in /  1031 hPa SE 1.0 mph /  1.6 km/h 5.0 mph /  8 km/h 98 % 0.00 in /  0 mm 0 W/m2
22:10 41.2 °F /  5.1 °C 40.7 °F /  4.8 °C 30.45 in /  1031 hPa SE 1.0 mph /  1.6 km/h 5.0 mph /  8 km/h 98 % 0.00 in /  0 mm 0 W/m2
22:15 41.2 °F /  5.1 °C 40.7 °F /  4.8 °C 30.45 in /  1031 hPa SE 1.0 mph /  1.6 km/h 5.0 mph /  8 km/h 98 % 0.00 in /  0 mm 0 W/m2
22:20 41.2 °F /  5.1 °C 40.7 °F /  4.8 °C 30.45 in /  1031 hPa SE 1.0 mph /  1.6 km/h 1.0 mph /  1.6 km/h 98 % 0.00 in /  0 mm 0 W/m2
22:25 41.2 °F /  5.1 °C 40.7 °F /  4.8 °C 30.45 in /  1031 hPa SE 1.0 mph /  1.6 km/h 5.0 mph /  8 km/h 98 % 0.00 in /  0 mm 0 W/m2
22:30 41.1 °F /  5.1 °C 40.6 °F /  4.8 °C 30.45 in /  1031 hPa Calm   5.0 mph /  8 km/h 98 % 0.00 in /  0 mm 0 W/m2
22:35 41.2 °F /  5.1 °C 40.7 °F /  4.8 °C 30.45 in /  1031 hPa Calm   5.0 mph /  8 km/h 98 % 0.00 in /  0 mm 0 W/m2
22:40 41.2 °F /  5.1 °C 40.7 °F /  4.8 °C 30.45 in /  1031 hPa Calm   5.0 mph /  8 km/h 98 % 0.00 in /  0 mm 0 W/m2
22:45 41.2 °F /  5.1 °C 40.7 °F /  4.8 °C 30.45 in /  1031 hPa Calm   5.0 mph /  8 km/h 98 % 0.00 in /  0 mm 0 W/m2
22:50 41.2 °F /  5.1 °C 40.7 °F /  4.8 °C 30.45 in /  1031 hPa SE 1.0 mph /  1.6 km/h 5.0 mph /  8 km/h 98 % 0.00 in /  0 mm 0 W/m2
23:00 41.2 °F /  5.1 °C 40.7 °F /  4.8 °C 30.45 in /  1031 hPa SSE 1.0 mph /  1.6 km/h 5.0 mph /  8 km/h 98 % 0.00 in /  0 mm 0 W/m2
23:05 41.2 °F /  5.1 °C 40.7 °F /  4.8 °C 30.45 in /  1031 hPa SSE 1.0 mph /  1.6 km/h 5.0 mph /  8 km/h 98 % 0.00 in /  0 mm 0 W/m2
23:10 41.2 °F /  5.1 °C 40.7 °F /  4.8 °C 30.45 in /  1031 hPa SSE 1.0 mph /  1.6 km/h 5.0 mph /  8 km/h 98 % 0.00 in /  0 mm 0 W/m2
23:15 41.2 °F /  5.1 °C 40.7 °F /  4.8 °C 30.45 in /  1031 hPa South 1.0 mph /  1.6 km/h 5.0 mph /  8 km/h 98 % 0.00 in /  0 mm 0 W/m2
23:20 41.2 °F /  5.1 °C 40.7 °F /  4.8 °C 30.44 in /  1030.7 hPa South 2.0 mph /  3.2 km/h 2.0 mph /  3.2 km/h 98 % 0.00 in /  0 mm 0 W/m2
23:25 41.2 °F /  5.1 °C 40.7 °F /  4.8 °C 30.44 in /  1030.7 hPa South 2.0 mph /  3.2 km/h 3.0 mph /  4.8 km/h 98 % 0.00 in /  0 mm 0 W/m2
23:30 41.2 °F /  5.1 °C 40.7 °F /  4.8 °C 30.44 in /  1030.7 hPa South 1.0 mph /  1.6 km/h 5.0 mph /  8 km/h 98 % 0.00 in /  0 mm 0 W/m2
23:40 41.1 °F /  5.1 °C 40.6 °F /  4.8 °C 30.44 in /  1030.7 hPa SE 3.0 mph /  4.8 km/h 7.0 mph /  11.3 km/h 98 % 0.00 in /  0 mm 0 W/m2
23:45 41.1 °F /  5.1 °C 40.6 °F /  4.8 °C 30.44 in /  1030.7 hPa SE 4.0 mph /  6.4 km/h 7.0 mph /  11.3 km/h 98 % 0.00 in /  0 mm 0 W/m2
23:50 41.2 °F /  5.1 °C 40.7 °F /  4.8 °C 30.44 in /  1030.7 hPa SSE 3.0 mph /  4.8 km/h 5.0 mph /  8 km/h 98 % 0.00 in /  0 mm 0 W/m2
23:55 41.2 °F /  5.1 °C 40.7 °F /  4.8 °C 30.44 in /  1030.7 hPa South 2.0 mph /  3.2 km/h 5.0 mph /  8 km/h 98 % 0.00 in /  0 mm 0 W/m2
Delerius-Weather
Compliments of Weather Underground - 1.75 mb

Data updates at regular intervals.